Time;durP1;ratioP1;P1;durP2;ratioP2;P2;SDS_P1;SDS_P2;PMS_P1;PMS_P2;Temp;Humidity;BMP_temperature;BMP_pressure;BME280_temperature;BME280_humidity;BME280_pressure;Samples;Min_cycle;Max_cycle;Signal;HPM_P1;HPM_P2
2023/09/24 00:02:14;;;;;;;5.35;1.67;;;;;;;;;;4923452;29;20043;-77
2023/09/24 00:04:40;;;;;;;4.28;2.00;;;;;;;;;;4922223;29;20032;-77
2023/09/24 00:07:06;;;;;;;3.55;1.55;;;;;;;;;;4918756;29;20028;-77
2023/09/24 00:09:31;;;;;;;3.35;1.80;;;;;;;;;;4916907;29;20055;-77
2023/09/24 00:11:57;;;;;;;5.20;2.20;;;;;;;;;;4918638;29;20051;-76
2023/09/24 00:14:22;;;;;;;4.00;2.05;;;;;;;;;;4922132;29;20096;-77
2023/09/24 00:16:47;;;;;;;4.80;2.10;;;;;;;;;;4926761;29;20036;-77
2023/09/24 00:19:13;;;;;;;3.55;1.80;;;;;;;;;;4919441;29;20040;-77
2023/09/24 00:21:38;;;;;;;4.57;2.20;;;;;;;;;;4918017;29;20124;-77
2023/09/24 00:24:03;;;;;;;3.95;2.05;;;;;;;;;;4915854;29;20123;-76
2023/09/24 00:26:29;;;;;;;4.50;1.60;;;;;;;;;;4918415;29;20033;-76
2023/09/24 00:28:54;;;;;;;5.13;2.08;;;;;;;;;;4923182;29;20500;-76
2023/09/24 00:31:21;;;;;;;4.18;1.80;;;;;;;;;;4922797;29;20068;-77
2023/09/24 00:33:46;;;;;;;4.50;2.03;;;;;;;;;;4920320;29;20048;-77
2023/09/24 00:36:11;;;;;;;4.50;1.92;;;;;;;;;;4919777;29;20433;-77
2023/09/24 00:38:37;;;;;;;5.82;2.30;;;;;;;;;;4925970;29;20127;-76
2023/09/24 00:41:03;;;;;;;2.60;1.40;;;;;;;;;;4924882;29;20443;-76
2023/09/24 00:43:30;;;;;;;3.17;1.80;;;;;;;;;;4924640;29;20035;-77
2023/09/24 00:45:56;;;;;;;3.80;2.17;;;;;;;;;;4927687;29;20047;-76
2023/09/24 00:48:23;;;;;;;5.13;1.95;;;;;;;;;;4928913;29;20021;-76
2023/09/24 00:50:48;;;;;;;3.40;1.70;;;;;;;;;;4925898;29;20393;-76
2023/09/24 00:53:14;;;;;;;5.00;1.88;;;;;;;;;;4918956;29;20035;-77
2023/09/24 00:55:39;;;;;;;5.10;2.20;;;;;;;;;;4926374;29;20063;-77
2023/09/24 00:58:05;;;;;;;4.20;1.95;;;;;;;;;;4916653;29;20064;-77
2023/09/24 01:00:34;;;;;;;4.38;2.15;;;;;;;;;;4924222;29;20032;-77
2023/09/24 01:02:59;;;;;;;5.13;1.92;;;;;;;;;;4924041;29;20031;-77
2023/09/24 01:05:25;;;;;;;5.30;2.30;;;;;;;;;;4917779;29;20040;-77
2023/09/24 01:07:51;;;;;;;3.55;1.80;;;;;;;;;;4922506;29;20023;-76
2023/09/24 01:10:16;;;;;;;4.05;2.00;;;;;;;;;;4925281;29;20119;-76
2023/09/24 01:12:52;;;;;;;4.40;1.80;;;;;;;;;;4923686;29;20074;-76
2023/09/24 01:15:18;;;;;;;4.35;1.65;;;;;;;;;;4927288;29;20032;-77
2023/09/24 01:17:43;;;;;;;4.53;2.05;;;;;;;;;;4925242;29;20409;-77
2023/09/24 01:20:13;;;;;;;4.43;2.58;;;;;;;;;;4918384;29;20381;-77
2023/09/24 01:22:40;;;;;;;4.22;1.98;;;;;;;;;;4925402;29;20039;-76
2023/09/24 01:25:06;;;;;;;4.75;1.85;;;;;;;;;;4925447;29;20109;-77
2023/09/24 01:27:36;;;;;;;5.85;2.30;;;;;;;;;;4922204;29;20040;-77
2023/09/24 01:30:04;;;;;;;3.67;1.77;;;;;;;;;;4931169;29;20064;-76
2023/09/24 01:32:30;;;;;;;2.65;1.63;;;;;;;;;;4920736;29;20032;-77
2023/09/24 01:34:55;;;;;;;4.25;1.90;;;;;;;;;;4920145;29;20412;-77
2023/09/24 01:37:22;;;;;;;5.68;2.42;;;;;;;;;;4924239;29;20044;-76
2023/09/24 01:39:49;;;;;;;5.70;1.83;;;;;;;;;;4925457;29;20036;-77
2023/09/24 01:42:15;;;;;;;4.10;1.98;;;;;;;;;;4927935;29;20059;-77
2023/09/24 01:44:41;;;;;;;6.40;2.08;;;;;;;;;;4923337;29;20036;-77
2023/09/24 01:47:07;;;;;;;5.10;2.20;;;;;;;;;;4928957;29;20032;-77
2023/09/24 01:49:33;;;;;;;4.90;2.38;;;;;;;;;;4925370;29;20035;-77
2023/09/24 01:51:58;;;;;;;6.10;2.05;;;;;;;;;;4930482;29;20047;-76
2023/09/24 01:54:25;;;;;;;3.88;1.75;;;;;;;;;;4928061;29;20500;-77
2023/09/24 01:56:50;;;;;;;4.28;2.08;;;;;;;;;;4926110;29;20508;-77
2023/09/24 01:59:16;;;;;;;3.88;1.80;;;;;;;;;;4923693;29;20032;-77
2023/09/24 02:01:44;;;;;;;4.57;2.20;;;;;;;;;;4925466;29;20035;-77
2023/09/24 02:04:10;;;;;;;4.75;2.10;;;;;;;;;;4921941;29;20556;-77
2023/09/24 02:06:35;;;;;;;9.60;2.38;;;;;;;;;;4927575;29;20032;-77
2023/09/24 02:09:01;;;;;;;4.43;2.20;;;;;;;;;;4927889;29;20028;-77
2023/09/24 02:11:27;;;;;;;5.00;1.98;;;;;;;;;;4930404;29;20035;-76
2023/09/24 02:13:53;;;;;;;5.50;1.73;;;;;;;;;;4933575;29;20504;-77
2023/09/24 02:16:18;;;;;;;3.13;1.40;;;;;;;;;;4927559;29;20050;-77
2023/09/24 02:18:43;;;;;;;3.90;1.63;;;;;;;;;;4931742;29;20040;-77
2023/09/24 02:21:14;;;;;;;3.03;1.55;;;;;;;;;;4927722;29;20125;-77
2023/09/24 02:23:40;;;;;;;2.75;1.58;;;;;;;;;;4923593;29;20044;-76
2023/09/24 02:26:08;;;;;;;3.70;1.55;;;;;;;;;;4929601;29;20042;-76
2023/09/24 02:28:34;;;;;;;7.22;2.60;;;;;;;;;;4926214;29;20035;-77
2023/09/24 02:30:59;;;;;;;3.47;1.90;;;;;;;;;;4933093;29;20401;-76
2023/09/24 02:33:24;;;;;;;4.60;2.22;;;;;;;;;;4934146;29;20108;-77
2023/09/24 02:35:49;;;;;;;3.33;1.98;;;;;;;;;;4931539;29;20036;-76
2023/09/24 02:38:14;;;;;;;4.55;2.30;;;;;;;;;;4930372;29;20032;-76
2023/09/24 02:40:40;;;;;;;5.03;2.20;;;;;;;;;;4929895;29;20674;-76
2023/09/24 02:43:05;;;;;;;4.05;2.10;;;;;;;;;;4929826;29;20115;-76
2023/09/24 02:45:31;;;;;;;3.33;1.70;;;;;;;;;;4930795;29;20118;-76
2023/09/24 02:47:56;;;;;;;5.10;1.92;;;;;;;;;;4933016;29;20027;-76
2023/09/24 02:50:24;;;;;;;3.00;1.60;;;;;;;;;;4933609;29;20460;-77
2023/09/24 02:52:50;;;;;;;3.70;2.00;;;;;;;;;;4927763;29;20028;-77
2023/09/24 02:55:15;;;;;;;3.95;2.00;;;;;;;;;;4931222;29;20067;-76
2023/09/24 02:57:42;;;;;;;5.82;1.88;;;;;;;;;;4927053;29;20070;-76
2023/09/24 03:00:15;;;;;;;4.05;1.85;;;;;;;;;;4930959;29;20086;-77
2023/09/24 03:02:40;;;;;;;3.60;1.98;;;;;;;;;;4930612;29;20050;-77
2023/09/24 03:05:06;;;;;;;4.07;2.20;;;;;;;;;;4933240;29;20035;-76
2023/09/24 03:07:31;;;;;;;3.42;2.00;;;;;;;;;;4929633;29;20024;-77
2023/09/24 03:09:57;;;;;;;3.17;1.80;;;;;;;;;;4932960;29;20391;-77
2023/09/24 03:12:23;;;;;;;5.75;2.35;;;;;;;;;;4923787;29;20110;-77
2023/09/24 03:14:48;;;;;;;5.18;2.38;;;;;;;;;;4930675;29;20036;-77
2023/09/24 03:17:14;;;;;;;4.95;2.10;;;;;;;;;;4924196;29;20040;-76
2023/09/24 03:19:39;;;;;;;5.10;2.33;;;;;;;;;;4922390;29;20127;-76
2023/09/24 03:22:04;;;;;;;4.43;2.20;;;;;;;;;;4924085;29;20393;-77
2023/09/24 03:24:29;;;;;;;4.03;1.98;;;;;;;;;;4925596;29;20048;-76
2023/09/24 03:26:54;;;;;;;4.93;1.98;;;;;;;;;;4924329;29;20038;-76
2023/09/24 03:29:20;;;;;;;2.85;1.73;;;;;;;;;;4922542;29;20572;-76
2023/09/24 03:31:45;;;;;;;3.28;1.80;;;;;;;;;;4920085;29;20028;-76
2023/09/24 03:34:10;;;;;;;5.28;2.00;;;;;;;;;;4926888;29;20414;-76
2023/09/24 03:36:37;;;;;;;4.90;2.08;;;;;;;;;;4920384;29;20386;-75
2023/09/24 03:39:03;;;;;;;4.32;2.20;;;;;;;;;;4926434;29;20134;-77
2023/09/24 03:41:28;;;;;;;3.88;2.22;;;;;;;;;;4928630;29;20035;-76
2023/09/24 03:43:53;;;;;;;3.20;1.70;;;;;;;;;;4927850;29;20179;-77
2023/09/24 03:46:19;;;;;;;3.80;1.65;;;;;;;;;;4921237;29;20067;-76
2023/09/24 03:48:45;;;;;;;3.85;1.92;;;;;;;;;;4918531;29;20489;-77
2023/09/24 03:51:10;;;;;;;3.92;1.75;;;;;;;;;;4921613;29;20032;-76
2023/09/24 03:53:36;;;;;;;3.90;2.08;;;;;;;;;;4915747;29;20047;-78
2023/09/24 03:56:01;;;;;;;3.65;1.60;;;;;;;;;;4926732;29;20036;-76
2023/09/24 03:58:26;;;;;;;4.03;2.05;;;;;;;;;;4920878;29;20032;-77
2023/09/24 04:00:51;;;;;;;2.92;1.40;;;;;;;;;;4921264;29;20497;-77
2023/09/24 04:03:18;;;;;;;4.35;1.92;;;;;;;;;;4919738;29;20032;-76
2023/09/24 04:05:43;;;;;;;3.80;1.65;;;;;;;;;;4919295;29;20023;-76
2023/09/24 04:08:08;;;;;;;4.65;2.33;;;;;;;;;;4914930;29;20087;-77
2023/09/24 04:10:34;;;;;;;5.57;2.20;;;;;;;;;;4930450;29;20024;-76
2023/09/24 04:13:00;;;;;;;6.03;2.80;;;;;;;;;;4925899;29;20047;-77
2023/09/24 04:15:28;;;;;;;4.95;2.50;;;;;;;;;;4924501;29;20114;-76
2023/09/24 04:17:56;;;;;;;3.40;1.85;;;;;;;;;;4923710;29;20095;-77
2023/09/24 04:20:22;;;;;;;4.20;2.47;;;;;;;;;;4926448;29;20048;-77
2023/09/24 04:22:47;;;;;;;3.55;1.88;;;;;;;;;;4930176;29;20043;-76
2023/09/24 04:25:31;;;;;;;3.38;2.00;;;;;;;;;;4926924;29;20098;-77
2023/09/24 04:27:56;;;;;;;3.50;1.73;;;;;;;;;;4927060;29;20078;-77
2023/09/24 04:30:23;;;;;;;4.93;2.53;;;;;;;;;;4929063;29;20083;-77
2023/09/24 04:32:52;;;;;;;4.75;2.17;;;;;;;;;;4921049;29;20389;-76
2023/09/24 04:35:19;;;;;;;4.05;1.85;;;;;;;;;;4918838;29;20091;-77
2023/09/24 04:37:44;;;;;;;4.50;2.22;;;;;;;;;;4931050;29;20035;-77
2023/09/24 04:40:14;;;;;;;4.50;2.70;;;;;;;;;;4930115;29;20046;-77
2023/09/24 04:42:41;;;;;;;5.13;2.65;;;;;;;;;;4930762;29;20046;-77
2023/09/24 04:45:06;;;;;;;5.13;3.15;;;;;;;;;;4933256;29;20028;-77
2023/09/24 04:47:32;;;;;;;3.95;2.30;;;;;;;;;;4926824;29;20039;-77
2023/09/24 04:49:57;;;;;;;4.25;2.65;;;;;;;;;;4928412;29;20040;-77
2023/09/24 04:52:23;;;;;;;6.25;2.70;;;;;;;;;;4938942;29;20064;-79
2023/09/24 04:54:48;;;;;;;4.00;2.33;;;;;;;;;;4928516;29;20060;-77
2023/09/24 04:57:13;;;;;;;4.25;2.42;;;;;;;;;;4923924;29;20028;-77
2023/09/24 04:59:38;;;;;;;5.17;2.20;;;;;;;;;;4925221;29;20040;-77
2023/09/24 05:02:03;;;;;;;5.23;2.50;;;;;;;;;;4920516;29;20817;-77
2023/09/24 05:04:29;;;;;;;6.28;2.83;;;;;;;;;;4922324;29;20299;-77
2023/09/24 05:06:54;;;;;;;5.10;2.15;;;;;;;;;;4928129;29;20674;-77
2023/09/24 05:09:20;;;;;;;6.90;3.45;;;;;;;;;;4928428;29;20067;-77
2023/09/24 05:11:46;;;;;;;6.55;2.90;;;;;;;;;;4923171;29;20123;-78
2023/09/24 05:14:11;;;;;;;4.68;2.40;;;;;;;;;;4923548;29;20077;-77
2023/09/24 05:16:36;;;;;;;6.82;2.90;;;;;;;;;;4922957;29;20186;-77
2023/09/24 05:19:03;;;;;;;5.30;2.85;;;;;;;;;;4928525;29;20181;-77
2023/09/24 05:21:28;;;;;;;6.97;2.85;;;;;;;;;;4924012;29;20115;-77
2023/09/24 05:23:54;;;;;;;7.18;2.60;;;;;;;;;;4924563;29;20131;-77
2023/09/24 05:26:19;;;;;;;4.28;2.50;;;;;;;;;;4931920;29;20094;-77
2023/09/24 05:28:45;;;;;;;5.00;2.97;;;;;;;;;;4924304;29;20040;-77
2023/09/24 05:31:10;;;;;;;5.10;2.60;;;;;;;;;;4917652;29;20044;-76
2023/09/24 05:33:35;;;;;;;4.30;2.20;;;;;;;;;;4924246;29;20084;-76
2023/09/24 05:36:00;;;;;;;5.40;2.40;;;;;;;;;;4925597;29;20044;-77
2023/09/24 05:38:27;;;;;;;6.78;2.63;;;;;;;;;;4925088;29;20090;-77
2023/09/24 05:40:52;;;;;;;4.78;2.50;;;;;;;;;;4921212;29;20036;-77
2023/09/24 05:43:17;;;;;;;5.32;2.15;;;;;;;;;;4919236;29;20508;-77
2023/09/24 05:45:46;;;;;;;4.75;2.38;;;;;;;;;;4919013;29;20032;-76
2023/09/24 05:48:12;;;;;;;6.38;2.67;;;;;;;;;;4927133;29;20066;-77
2023/09/24 05:50:38;;;;;;;6.53;2.55;;;;;;;;;;4924021;29;20052;-77
2023/09/24 05:53:03;;;;;;;4.35;2.33;;;;;;;;;;4922592;29;20043;-77
2023/09/24 05:55:28;;;;;;;4.10;2.42;;;;;;;;;;4919464;29;20047;-77
2023/09/24 05:57:54;;;;;;;4.90;2.23;;;;;;;;;;4920873;29;20039;-77
2023/09/24 06:00:19;;;;;;;5.63;2.37;;;;;;;;;;4923441;29;20290;-78
2023/09/24 06:02:44;;;;;;;5.45;2.70;;;;;;;;;;4923671;29;20287;-77
2023/09/24 06:05:09;;;;;;;4.47;2.10;;;;;;;;;;4931288;29;20070;-78
2023/09/24 06:07:34;;;;;;;4.50;2.27;;;;;;;;;;4932665;29;20707;-77
2023/09/24 06:10:04;;;;;;;5.73;2.33;;;;;;;;;;4924678;29;20272;-77
2023/09/24 06:12:30;;;;;;;6.30;2.50;;;;;;;;;;4929181;29;20283;-77
2023/09/24 06:14:55;;;;;;;4.72;2.20;;;;;;;;;;4931231;29;20047;-78
2023/09/24 06:17:20;;;;;;;3.85;2.20;;;;;;;;;;4928280;29;20134;-78
2023/09/24 06:19:45;;;;;;;4.70;2.53;;;;;;;;;;4929177;29;20108;-77
2023/09/24 06:22:11;;;;;;;5.38;2.00;;;;;;;;;;4934356;29;20126;-78
2023/09/24 06:24:36;;;;;;;3.50;1.85;;;;;;;;;;4922636;29;20031;-77
2023/09/24 06:27:03;;;;;;;5.43;1.90;;;;;;;;;;4929620;29;20088;-78
2023/09/24 06:29:28;;;;;;;5.85;2.53;;;;;;;;;;4929993;29;20355;-77
2023/09/24 06:31:53;;;;;;;4.37;2.30;;;;;;;;;;4927402;29;20481;-78
2023/09/24 06:34:20;;;;;;;6.03;2.42;;;;;;;;;;4931673;29;20307;-78
2023/09/24 06:36:45;;;;;;;4.22;2.33;;;;;;;;;;4931734;29;20043;-78
2023/09/24 06:39:13;;;;;;;7.35;2.65;;;;;;;;;;4930047;29;20036;-78
2023/09/24 06:41:39;;;;;;;4.47;2.15;;;;;;;;;;4927503;29;20047;-79
2023/09/24 06:44:04;;;;;;;4.63;2.53;;;;;;;;;;4932582;29;20039;-78
2023/09/24 06:46:29;;;;;;;11.77;3.35;;;;;;;;;;4927856;29;20111;-78
2023/09/24 06:48:54;;;;;;;4.28;2.20;;;;;;;;;;4931040;29;20028;-78
2023/09/24 06:51:20;;;;;;;4.13;2.40;;;;;;;;;;4925044;29;20036;-78
2023/09/24 06:53:45;;;;;;;4.78;2.33;;;;;;;;;;4923840;29;20035;-78
2023/09/24 06:56:11;;;;;;;4.90;2.63;;;;;;;;;;4929873;29;20040;-77
2023/09/24 06:58:36;;;;;;;5.25;2.08;;;;;;;;;;4932915;29;20038;-78
2023/09/24 07:01:03;;;;;;;5.65;2.38;;;;;;;;;;4929123;29;20047;-78
2023/09/24 07:03:29;;;;;;;5.18;2.45;;;;;;;;;;4925920;29;20036;-78
2023/09/24 07:05:54;;;;;;;5.72;2.10;;;;;;;;;;4929390;29;20087;-78
2023/09/24 07:08:20;;;;;;;4.85;2.58;;;;;;;;;;4928358;29;20031;-78
2023/09/24 07:10:45;;;;;;;6.45;1.92;;;;;;;;;;4935267;29;20074;-77
2023/09/24 07:13:10;;;;;;;5.18;2.53;;;;;;;;;;4922362;29;20048;-78
2023/09/24 07:15:36;;;;;;;6.07;2.20;;;;;;;;;;4928322;29;20277;-78
2023/09/24 07:18:02;;;;;;;3.80;1.88;;;;;;;;;;4934659;29;20279;-78
2023/09/24 07:20:27;;;;;;;4.15;2.05;;;;;;;;;;4933191;29;20099;-78
2023/09/24 07:22:52;;;;;;;5.40;2.25;;;;;;;;;;4923290;29;20032;-79
2023/09/24 07:25:17;;;;;;;6.33;2.53;;;;;;;;;;4930117;29;20042;-78
2023/09/24 07:27:42;;;;;;;5.70;2.63;;;;;;;;;;4931176;29;20280;-78
2023/09/24 07:30:08;;;;;;;5.25;2.40;;;;;;;;;;4931402;29;20551;-79
2023/09/24 07:32:34;;;;;;;4.60;2.38;;;;;;;;;;4921858;29;20401;-77
2023/09/24 07:34:59;;;;;;;6.15;2.65;;;;;;;;;;4919786;29;20039;-78
2023/09/24 07:37:24;;;;;;;4.57;2.13;;;;;;;;;;4924595;29;20464;-77
2023/09/24 07:39:49;;;;;;;5.60;2.80;;;;;;;;;;4927491;29;20043;-77
2023/09/24 07:42:15;;;;;;;9.20;2.95;;;;;;;;;;4923926;29;20082;-78
2023/09/24 07:44:41;;;;;;;5.95;2.28;;;;;;;;;;4917759;29;20528;-77
2023/09/24 07:47:06;;;;;;;3.85;2.00;;;;;;;;;;4927575;29;20035;-77
2023/09/24 07:49:31;;;;;;;3.70;1.98;;;;;;;;;;4919296;29;20080;-77
2023/09/24 07:51:57;;;;;;;6.13;2.80;;;;;;;;;;4920235;29;20052;-78
2023/09/24 07:54:22;;;;;;;6.47;2.60;;;;;;;;;;4925059;29;20307;-77
2023/09/24 07:56:47;;;;;;;6.38;2.67;;;;;;;;;;4924853;29;20044;-77
2023/09/24 07:59:12;;;;;;;4.70;2.80;;;;;;;;;;4924070;29;20044;-77
2023/09/24 08:01:38;;;;;;;6.43;2.10;;;;;;;;;;4921145;29;20287;-78
2023/09/24 08:04:03;;;;;;;4.95;2.72;;;;;;;;;;4933515;29;20106;-77
2023/09/24 08:06:29;;;;;;;5.22;2.80;;;;;;;;;;4930052;29;20512;-77
2023/09/24 08:08:58;;;;;;;6.20;2.65;;;;;;;;;;4931328;29;20043;-77
2023/09/24 08:11:23;;;;;;;4.60;2.65;;;;;;;;;;4919846;29;20481;-77
2023/09/24 08:13:48;;;;;;;5.13;2.80;;;;;;;;;;4927325;29;20046;-77
2023/09/24 08:16:14;;;;;;;6.47;3.00;;;;;;;;;;4924228;29;20118;-77
2023/09/24 08:18:39;;;;;;;6.57;2.75;;;;;;;;;;4916689;29;20106;-77
2023/09/24 08:21:05;;;;;;;5.88;3.03;;;;;;;;;;4925403;29;20043;-77
2023/09/24 08:23:31;;;;;;;6.63;3.20;;;;;;;;;;4923570;29;20044;-77
2023/09/24 08:25:56;;;;;;;8.77;3.63;;;;;;;;;;4920919;29;20038;-77
2023/09/24 08:28:21;;;;;;;6.60;3.83;;;;;;;;;;4923558;29;20421;-77
2023/09/24 08:30:46;;;;;;;8.50;3.50;;;;;;;;;;4923866;29;20374;-77
2023/09/24 08:33:12;;;;;;;6.63;3.17;;;;;;;;;;4921838;29;20334;-77
2023/09/24 08:35:38;;;;;;;6.07;3.25;;;;;;;;;;4920806;29;20605;-77
2023/09/24 08:38:03;;;;;;;8.00;4.20;;;;;;;;;;4925681;29;20048;-77
2023/09/24 08:40:30;;;;;;;7.95;4.05;;;;;;;;;;4921288;29;20036;-77
2023/09/24 08:42:55;;;;;;;5.93;3.70;;;;;;;;;;4918710;29;20133;-77
2023/09/24 08:45:21;;;;;;;6.95;4.18;;;;;;;;;;4915569;29;20554;-77
2023/09/24 08:47:46;;;;;;;7.95;3.50;;;;;;;;;;4921730;29;20036;-77
2023/09/24 08:50:12;;;;;;;6.78;3.20;;;;;;;;;;4929082;29;20085;-77
2023/09/24 08:52:39;;;;;;;6.30;3.20;;;;;;;;;;4919422;29;20111;-77
2023/09/24 08:55:09;;;;;;;5.88;3.40;;;;;;;;;;4923401;29;20415;-77
2023/09/24 08:57:35;;;;;;;7.13;3.35;;;;;;;;;;4924521;29;20080;-77
2023/09/24 09:00:00;;;;;;;5.75;3.00;;;;;;;;;;4942407;29;20035;-77
2023/09/24 09:02:25;;;;;;;5.35;2.88;;;;;;;;;;4926729;29;20040;-77
2023/09/24 09:04:51;;;;;;;5.82;3.28;;;;;;;;;;4932763;29;20122;-77
2023/09/24 09:07:16;;;;;;;6.35;3.15;;;;;;;;;;4941248;29;20044;-78
2023/09/24 09:09:51;;;;;;;5.95;3.15;;;;;;;;;;4939102;29;20631;-77
2023/09/24 09:12:19;;;;;;;5.47;2.88;;;;;;;;;;4939408;29;20040;-77
2023/09/24 09:14:44;;;;;;;5.10;2.72;;;;;;;;;;4935215;29;20039;-77
2023/09/24 09:17:10;;;;;;;5.45;2.78;;;;;;;;;;4936863;29;20541;-77
2023/09/24 09:19:52;;;;;;;4.25;2.35;;;;;;;;;;4932155;29;20099;-77
2023/09/24 09:22:17;;;;;;;;;;;;;;;;;;4927484;29;20044;-77
2023/09/24 09:24:42;;;;;;;3.78;1.70;;;;;;;;;;4922154;29;20390;-78
2023/09/24 09:27:08;;;;;;;3.63;1.77;;;;;;;;;;4923377;29;20035;-78
2023/09/24 09:29:33;;;;;;;3.42;1.80;;;;;;;;;;4931246;29;20987;-77
2023/09/24 09:31:58;;;;;;;4.63;1.60;;;;;;;;;;4929343;29;20032;-77
2023/09/24 09:34:23;;;;;;;6.07;1.93;;;;;;;;;;4934955;29;20776;-77
2023/09/24 09:36:49;;;;;;;5.50;1.73;;;;;;;;;;4928204;29;20286;-78
2023/09/24 09:39:14;;;;;;;8.07;2.10;;;;;;;;;;4922298;29;20650;-78
2023/09/24 09:41:42;;;;;;;6.43;2.00;;;;;;;;;;4920971;29;20036;-78
2023/09/24 09:44:08;;;;;;;3.92;1.60;;;;;;;;;;4930382;29;20299;-77
2023/09/24 09:46:34;;;;;;;5.97;2.00;;;;;;;;;;4929335;29;20411;-77
2023/09/24 09:49:05;;;;;;;2.90;1.33;;;;;;;;;;4928230;29;20040;-78
2023/09/24 09:51:33;;;;;;;2.38;1.23;;;;;;;;;;4921764;29;20552;-77
2023/09/24 09:54:04;;;;;;;3.55;1.40;;;;;;;;;;4928562;29;20071;-77
2023/09/24 09:56:29;;;;;;;3.63;1.27;;;;;;;;;;4925409;29;20512;-78
2023/09/24 09:58:54;;;;;;;4.88;1.30;;;;;;;;;;4932042;29;20034;-78
2023/09/24 10:01:20;;;;;;;4.40;1.47;;;;;;;;;;4925802;29;20042;-78
2023/09/24 10:03:47;;;;;;;5.90;2.55;;;;;;;;;;4921559;29;20303;-77
2023/09/24 10:06:13;;;;;;;4.03;1.27;;;;;;;;;;4928187;29;20040;-78
2023/09/24 10:08:39;;;;;;;3.40;1.42;;;;;;;;;;4927252;29;20036;-77
2023/09/24 10:11:05;;;;;;;5.40;1.95;;;;;;;;;;4925259;29;20090;-78
2023/09/24 10:13:44;;;;;;;2.53;0.68;;;;;;;;;;4926340;29;20028;-78
2023/09/24 10:16:28;;;;;;;4.05;1.27;;;;;;;;;;4931444;29;20090;-78
2023/09/24 10:19:09;;;;;;;3.08;1.30;;;;;;;;;;4929932;29;20400;-78
2023/09/24 10:21:36;;;;;;;3.60;1.17;;;;;;;;;;4923792;29;20037;-77
2023/09/24 10:24:10;;;;;;;4.97;1.55;;;;;;;;;;4923204;29;20048;-77
2023/09/24 10:26:48;;;;;;;2.88;1.20;;;;;;;;;;4930151;29;20035;-78
2023/09/24 10:29:13;;;;;;;3.90;1.30;;;;;;;;;;4929124;29;20028;-77
2023/09/24 10:31:57;;;;;;;4.32;2.00;;;;;;;;;;4924360;29;20120;-77
2023/09/24 10:34:22;;;;;;;3.15;1.10;;;;;;;;;;4922841;29;20040;-77
2023/09/24 10:37:08;;;;;;;2.67;0.90;;;;;;;;;;4919571;29;20084;-77
2023/09/24 10:39:33;;;;;;;2.78;1.13;;;;;;;;;;4930647;29;20276;-77
2023/09/24 10:42:11;;;;;;;3.07;1.30;;;;;;;;;;4926683;29;20051;-77
2023/09/24 10:44:37;;;;;;;4.32;1.58;;;;;;;;;;4922470;29;20391;-77
2023/09/24 10:47:23;;;;;;;2.92;1.20;;;;;;;;;;4924053;29;20051;-77
2023/09/24 10:49:49;;;;;;;3.70;1.13;;;;;;;;;;4923263;29;20075;-77
2023/09/24 10:52:14;;;;;;;3.28;0.90;;;;;;;;;;4919097;29;20028;-77
2023/09/24 10:54:39;;;;;;;3.20;1.17;;;;;;;;;;4923363;29;20505;-77
2023/09/24 10:57:04;;;;;;;3.08;0.88;;;;;;;;;;4928007;29;20319;-77
2023/09/24 10:59:33;;;;;;;2.60;0.70;;;;;;;;;;4925767;29;20071;-77
2023/09/24 11:02:13;;;;;;;2.65;0.98;;;;;;;;;;4924318;29;20622;-77
2023/09/24 11:04:39;;;;;;;4.90;1.23;;;;;;;;;;4921396;29;20042;-77
2023/09/24 11:07:11;;;;;;;4.10;1.00;;;;;;;;;;4930840;29;20031;-77
2023/09/24 11:09:37;;;;;;;4.22;0.93;;;;;;;;;;4925194;29;20039;-78
2023/09/24 11:12:08;;;;;;;2.25;0.95;;;;;;;;;;4927721;29;20031;-77
2023/09/24 11:14:33;;;;;;;3.20;0.90;;;;;;;;;;4929189;29;20059;-77
2023/09/24 11:16:59;;;;;;;2.47;1.13;;;;;;;;;;4921954;29;20099;-77
2023/09/24 11:19:40;;;;;;;3.13;0.80;;;;;;;;;;4924477;29;20444;-77
2023/09/24 11:22:14;;;;;;;5.70;1.05;;;;;;;;;;4925860;29;20115;-77
2023/09/24 11:24:39;;;;;;;2.40;0.70;;;;;;;;;;4924625;29;20040;-77
2023/09/24 11:27:05;;;;;;;2.67;0.70;;;;;;;;;;4926430;29;20035;-77
2023/09/24 11:29:31;;;;;;;2.88;0.65;;;;;;;;;;4924303;29;20286;-77
2023/09/24 11:31:56;;;;;;;5.95;0.80;;;;;;;;;;4919789;29;20400;-77
2023/09/24 11:34:21;;;;;;;1.90;0.80;;;;;;;;;;4925222;29;20479;-78
2023/09/24 11:36:54;;;;;;;2.33;0.70;;;;;;;;;;4928467;29;20275;-77
2023/09/24 11:39:20;;;;;;;2.92;0.85;;;;;;;;;;4926178;29;20038;-78
2023/09/24 11:41:45;;;;;;;2.63;0.70;;;;;;;;;;4922980;29;20072;-77
2023/09/24 11:44:11;;;;;;;3.05;0.75;;;;;;;;;;4926734;29;20039;-77
2023/09/24 11:46:36;;;;;;;4.37;1.53;;;;;;;;;;4923962;29;20028;-78
2023/09/24 11:49:01;;;;;;;2.63;0.75;;;;;;;;;;4930250;29;20375;-78
2023/09/24 11:51:27;;;;;;;1.87;0.73;;;;;;;;;;4926249;29;20032;-78
2023/09/24 11:53:52;;;;;;;5.30;0.80;;;;;;;;;;4924196;29;20295;-77
2023/09/24 11:56:18;;;;;;;2.53;1.07;;;;;;;;;;4928717;29;20027;-77
2023/09/24 11:58:43;;;;;;;2.85;1.02;;;;;;;;;;4935286;29;20686;-78
2023/09/24 12:01:10;;;;;;;3.03;1.17;;;;;;;;;;4927400;29;20067;-78
2023/09/24 12:03:35;;;;;;;2.90;1.10;;;;;;;;;;4926313;29;20024;-77
2023/09/24 12:06:00;;;;;;;1.35;0.68;;;;;;;;;;4926943;29;20040;-78
2023/09/24 12:08:25;;;;;;;1.73;0.60;;;;;;;;;;4929532;29;20020;-78
2023/09/24 12:10:51;;;;;;;2.17;0.63;;;;;;;;;;4924731;29;20768;-77
2023/09/24 12:13:18;;;;;;;1.55;0.73;;;;;;;;;;4920340;29;20024;-78
2023/09/24 12:15:43;;;;;;;2.17;0.60;;;;;;;;;;4929309;29;20101;-78
2023/09/24 12:18:08;;;;;;;1.30;0.47;;;;;;;;;;4932052;29;20408;-78
2023/09/24 12:20:35;;;;;;;2.20;0.50;;;;;;;;;;4925333;29;20511;-77
2023/09/24 12:23:01;;;;;;;2.45;0.70;;;;;;;;;;4925469;29;20107;-78
2023/09/24 12:25:26;;;;;;;1.52;0.60;;;;;;;;;;4924170;29;20044;-78
2023/09/24 12:27:52;;;;;;;1.55;0.60;;;;;;;;;;4928483;29;20039;-78
2023/09/24 12:30:17;;;;;;;1.05;0.40;;;;;;;;;;4928816;29;20439;-78
2023/09/24 12:32:42;;;;;;;0.70;0.30;;;;;;;;;;4928288;29;20031;-78
2023/09/24 12:35:08;;;;;;;1.02;0.30;;;;;;;;;;4929130;29;20271;-78
2023/09/24 12:37:34;;;;;;;1.98;0.60;;;;;;;;;;4926468;29;20040;-78
2023/09/24 12:40:00;;;;;;;1.42;0.47;;;;;;;;;;4928107;29;20096;-76
2023/09/24 12:42:31;;;;;;;1.05;0.30;;;;;;;;;;4921899;29;20064;-77
2023/09/24 12:44:56;;;;;;;1.58;0.65;;;;;;;;;;4928100;29;20485;-76
2023/09/24 12:47:21;;;;;;;2.03;0.45;;;;;;;;;;4930005;29;20083;-77
2023/09/24 12:49:47;;;;;;;1.37;0.50;;;;;;;;;;4925980;29;20024;-77
2023/09/24 12:52:12;;;;;;;2.17;0.50;;;;;;;;;;4924316;29;20026;-77
2023/09/24 12:54:39;;;;;;;2.10;0.50;;;;;;;;;;4924879;29;20033;-77
2023/09/24 12:57:04;;;;;;;3.15;0.45;;;;;;;;;;4933710;29;20275;-77
2023/09/24 12:59:29;;;;;;;3.65;0.65;;;;;;;;;;4930747;29;20492;-77
2023/09/24 13:01:54;;;;;;;1.33;0.30;;;;;;;;;;4927010;29;20088;-77
2023/09/24 13:04:20;;;;;;;1.17;0.50;;;;;;;;;;4924832;29;20036;-77
2023/09/24 13:06:45;;;;;;;2.10;0.43;;;;;;;;;;4921510;29;20055;-77
2023/09/24 13:09:16;;;;;;;0.65;0.40;;;;;;;;;;4924687;29;20036;-77
2023/09/24 13:11:45;;;;;;;1.40;0.45;;;;;;;;;;4923946;29;20040;-78
2023/09/24 13:14:11;;;;;;;1.30;0.50;;;;;;;;;;4928717;29;20424;-77
2023/09/24 13:16:36;;;;;;;2.05;0.60;;;;;;;;;;4926219;29;20032;-77
2023/09/24 13:19:01;;;;;;;1.93;0.40;;;;;;;;;;4925610;29;20031;-78
2023/09/24 13:21:26;;;;;;;1.60;0.47;;;;;;;;;;4920843;29;20481;-77
2023/09/24 13:23:51;;;;;;;1.70;0.50;;;;;;;;;;4920159;29;20284;-77
2023/09/24 13:26:17;;;;;;;3.35;1.15;;;;;;;;;;4932247;29;20367;-77
2023/09/24 13:28:42;;;;;;;1.60;0.55;;;;;;;;;;4927870;29;20111;-77
2023/09/24 13:31:07;;;;;;;0.70;0.30;;;;;;;;;;4927304;29;20041;-77
2023/09/24 13:33:32;;;;;;;0.73;0.30;;;;;;;;;;4921070;29;20025;-77
2023/09/24 13:35:58;;;;;;;1.07;0.40;;;;;;;;;;4920733;29;20120;-77
2023/09/24 13:38:23;;;;;;;1.77;0.67;;;;;;;;;;4925302;29;20028;-77
2023/09/24 13:40:48;;;;;;;1.40;0.43;;;;;;;;;;4924876;29;20083;-77
2023/09/24 13:43:13;;;;;;;0.80;0.30;;;;;;;;;;4927985;29;20128;-77
2023/09/24 13:45:40;;;;;;;1.83;0.40;;;;;;;;;;4922175;29;20095;-77
2023/09/24 13:48:05;;;;;;;1.65;0.38;;;;;;;;;;4922061;29;20039;-77
2023/09/24 13:50:30;;;;;;;3.58;0.45;;;;;;;;;;4925468;29;20031;-77
2023/09/24 13:52:56;;;;;;;1.47;0.40;;;;;;;;;;4930955;29;20024;-77
2023/09/24 13:55:21;;;;;;;2.00;0.50;;;;;;;;;;4926509;29;20519;-77
2023/09/24 13:57:46;;;;;;;1.63;0.57;;;;;;;;;;4925496;29;20446;-77
2023/09/24 14:00:12;;;;;;;1.75;0.77;;;;;;;;;;4924781;29;20035;-77
2023/09/24 14:02:37;;;;;;;1.40;0.70;;;;;;;;;;4919645;29;20039;-77
2023/09/24 14:05:02;;;;;;;1.80;0.60;;;;;;;;;;4924151;29;20088;-77
2023/09/24 14:07:27;;;;;;;4.47;1.10;;;;;;;;;;4927256;29;20393;-77
2023/09/24 14:12:36;;;;;;;1.30;0.45;;;;;;;;;;4924621;29;20355;-77
2023/09/24 14:15:04;;;;;;;1.20;0.40;;;;;;;;;;4923384;29;20059;-77
2023/09/24 14:17:29;;;;;;;1.13;0.50;;;;;;;;;;4923228;29;20155;-77
2023/09/24 14:19:55;;;;;;;1.53;0.50;;;;;;;;;;4924535;29;20055;-77
2023/09/24 14:22:20;;;;;;;1.58;0.60;;;;;;;;;;4930219;29;20647;-77
2023/09/24 14:24:45;;;;;;;2.30;0.60;;;;;;;;;;4923061;29;20032;-77
2023/09/24 14:27:10;;;;;;;1.23;0.50;;;;;;;;;;4926352;29;20283;-77
2023/09/24 14:29:36;;;;;;;1.10;0.47;;;;;;;;;;4924634;29;20272;-77
2023/09/24 14:32:01;;;;;;;1.87;0.90;;;;;;;;;;4920096;29;20287;-77
2023/09/24 14:34:26;;;;;;;1.50;0.50;;;;;;;;;;4920786;29;20279;-77
2023/09/24 14:36:52;;;;;;;0.57;0.40;;;;;;;;;;4925961;29;20032;-78
2023/09/24 14:39:17;;;;;;;1.77;0.50;;;;;;;;;;4924445;29;20107;-77
2023/09/24 14:41:42;;;;;;;1.02;0.40;;;;;;;;;;4922109;29;20032;-78